Aérodrome :
LOGIN :

S'inscrire | Disclaimer

   EN    FR    IT 

 










Légende :    VFR   VFR Marginal   IFR   IFR Intensif   IFR Très Intensif
Visi : 
Plafond : 
>= 8 km
>= 3000ft
5 à 8 km
1000 à 3000 ft
1500m à 5 km
500 à 1000 ft
800 à 1500m
200 à 500 ft
< 800m
< 200 ft
Symboles :   Orages  Brouillard  Fortes neiges  Fortes précipitations  Vent > 20 kt
SIGMETs :   Divers  Orages  Givrage  Turbulence  Onde Orograph.  Cendres Volcan.







- Altitude de l'aérodrome : 74 ft
- Code IATA : EIN


EHEH - Eindhoven

DERNIER METAR :
  • 200355Z AUTO 18004KT 9999 BKN060 BKN130 OVC340 15/12 Q1017 BLU

METARs EXPIRÉS :
  • 200325Z AUTO 17005KT 9999 BKN130 OVC330 15/12 Q1017 BLU
  • 200255Z AUTO 17004KT 9999 OVC320 15/12 Q1017 BLU
  • 200225Z AUTO 18003KT 9999 OVC280 15/12 Q1017 BLU
  • 200155Z AUTO 19004KT 9999 OVC280 16/12 Q1017 BLU
  • 200125Z AUTO 19005KT 9999 OVC270 16/13 Q1017 BLU

TAF TAF EHEH
Valide du 20 à 00h jusqu'au 21 à 06h UTC


192303Z 2000/2106 20008KT CAVOK
BECMG 2008/2010 22012G24KT SCT020
BECMG 2016/2018 18006KT
BECMG 2023/2102 19010G20KT
BECMG 2103/2106 20020G35KT
Pas de NOTAMs connus pour ce terrain.



MET'MAP, la Météo Aéronautique d'un coup d'oeil ! - Copyright ORBIFLY Décembre 2007 - Disclaimer

ORBIFLY MET'MAP TEAM :

Programmation & Développement : Alexandra Zaïnal
Conception & Développement : Baudouin d'Aumeries
Co-Programmation & Développement : Marc-Olivier Méhu
Soutien technique & logistique : Manuel Goepfert

Contact : metmap@orbifly.com




SOURCES & CREDITS :

   NOAA